Weather at Breznik

Public forecast

Using degrees Celsius for public forecast. Weather courtesy of forecast.io.

Closest aviation weather report (METAR) to Breznik

Closest report is Sofia Airport, 23.0 nm (42.6 km) E.

2024/05/30 16:30 (retrieved 22 minutes ago)

LBSF 301630Z AUTO 29010KT 9999 -TSRA SCT062 BKN078 //////CB 18/12 Q1010 TEMPO 5000 TSRA SCT030CB

Closest aviation forecast (TAF) to Breznik

Closest forecast is Sofia Airport, 23.0 nm (42.6 km) E.

2024/05/30 12:18 (retrieved 5 hours ago)

TAF LBSF 301100Z 3012/3112 32010KT 9999 SCT040 BKN060 TEMPO 3012/3017 VRB16G26KT 5000 TSRA SCT030CB OVC050 BECMG 3017/3019 VRB04KT TEMPO 3100/3105 3000 BR SCT010 BECMG 3108/3110 22010KT